sensor_id;sensor_type;location;lat;lon;timestamp;P1;durP1;ratioP1;P2;durP2;ratioP2
50976;SDS011;36992;48.200;12.418;2023-05-14T00:00:19;3.03;;;1.65;;
50976;SDS011;36992;48.200;12.418;2023-05-14T00:02:46;3.03;;;1.75;;
50976;SDS011;36992;48.200;12.418;2023-05-14T00:05:12;3.90;;;1.92;;
50976;SDS011;36992;48.200;12.418;2023-05-14T00:07:39;3.42;;;1.90;;
50976;SDS011;36992;48.200;12.418;2023-05-14T00:10:06;3.05;;;1.70;;
50976;SDS011;36992;48.200;12.418;2023-05-14T00:12:33;3.90;;;2.17;;
50976;SDS011;36992;48.200;12.418;2023-05-14T00:14:59;3.33;;;1.70;;
50976;SDS011;36992;48.200;12.418;2023-05-14T00:17:27;2.95;;;1.50;;
50976;SDS011;36992;48.200;12.418;2023-05-14T00:19:54;3.42;;;1.77;;
50976;SDS011;36992;48.200;12.418;2023-05-14T00:22:20;3.45;;;1.77;;
50976;SDS011;36992;48.200;12.418;2023-05-14T00:24:47;2.80;;;1.70;;
50976;SDS011;36992;48.200;12.418;2023-05-14T00:27:13;2.58;;;1.60;;
50976;SDS011;36992;48.200;12.418;2023-05-14T00:29:40;2.30;;;1.40;;
50976;SDS011;36992;48.200;12.418;2023-05-14T00:32:07;2.72;;;1.50;;
50976;SDS011;36992;48.200;12.418;2023-05-14T00:34:35;2.85;;;1.83;;
50976;SDS011;36992;48.200;12.418;2023-05-14T00:37:01;2.83;;;1.55;;
50976;SDS011;36992;48.200;12.418;2023-05-14T00:39:28;3.35;;;2.15;;
50976;SDS011;36992;48.200;12.418;2023-05-14T00:41:54;2.88;;;1.60;;
50976;SDS011;36992;48.200;12.418;2023-05-14T00:44:21;4.85;;;2.33;;
50976;SDS011;36992;48.200;12.418;2023-05-14T00:46:47;2.95;;;1.55;;
50976;SDS011;36992;48.200;12.418;2023-05-14T00:49:14;2.70;;;1.52;;
50976;SDS011;36992;48.200;12.418;2023-05-14T00:51:42;3.33;;;1.70;;
50976;SDS011;36992;48.200;12.418;2023-05-14T00:54:10;3.58;;;1.70;;
50976;SDS011;36992;48.200;12.418;2023-05-14T00:56:38;3.80;;;2.00;;
50976;SDS011;36992;48.200;12.418;2023-05-14T00:59:05;2.63;;;1.50;;
50976;SDS011;36992;48.200;12.418;2023-05-14T01:01:31;2.95;;;1.70;;
50976;SDS011;36992;48.200;12.418;2023-05-14T01:03:58;3.17;;;1.67;;
50976;SDS011;36992;48.200;12.418;2023-05-14T01:06:27;4.55;;;2.08;;
50976;SDS011;36992;48.200;12.418;2023-05-14T01:09:02;3.17;;;1.70;;
50976;SDS011;36992;48.200;12.418;2023-05-14T01:11:35;3.20;;;1.77;;
50976;SDS011;36992;48.200;12.418;2023-05-14T01:14:10;2.90;;;1.73;;
50976;SDS011;36992;48.200;12.418;2023-05-14T01:16:45;3.15;;;1.95;;
50976;SDS011;36992;48.200;12.418;2023-05-14T01:19:19;4.07;;;2.22;;
50976;SDS011;36992;48.200;12.418;2023-05-14T01:21:52;3.60;;;2.10;;
50976;SDS011;36992;48.200;12.418;2023-05-14T01:24:18;4.18;;;1.92;;
50976;SDS011;36992;48.200;12.418;2023-05-14T01:26:45;3.13;;;1.73;;
50976;SDS011;36992;48.200;12.418;2023-05-14T01:29:12;3.58;;;2.00;;
50976;SDS011;36992;48.200;12.418;2023-05-14T01:31:44;3.83;;;2.03;;
50976;SDS011;36992;48.200;12.418;2023-05-14T01:34:14;6.78;;;2.00;;
50976;SDS011;36992;48.200;12.418;2023-05-14T01:36:41;3.80;;;2.38;;
50976;SDS011;36992;48.200;12.418;2023-05-14T01:39:10;3.50;;;2.03;;
50976;SDS011;36992;48.200;12.418;2023-05-14T01:41:39;3.33;;;2.13;;
50976;SDS011;36992;48.200;12.418;2023-05-14T01:44:07;4.03;;;2.20;;
50976;SDS011;36992;48.200;12.418;2023-05-14T01:46:34;3.45;;;2.08;;
50976;SDS011;36992;48.200;12.418;2023-05-14T01:49:01;5.97;;;2.03;;
50976;SDS011;36992;48.200;12.418;2023-05-14T01:51:27;3.83;;;2.25;;
50976;SDS011;36992;48.200;12.418;2023-05-14T01:53:54;3.30;;;1.88;;
50976;SDS011;36992;48.200;12.418;2023-05-14T01:56:22;3.42;;;1.77;;
50976;SDS011;36992;48.200;12.418;2023-05-14T01:58:49;4.35;;;1.88;;
50976;SDS011;36992;48.200;12.418;2023-05-14T02:01:16;3.58;;;1.60;;
50976;SDS011;36992;48.200;12.418;2023-05-14T02:03:43;4.32;;;2.03;;
50976;SDS011;36992;48.200;12.418;2023-05-14T02:06:09;3.05;;;1.98;;
50976;SDS011;36992;48.200;12.418;2023-05-14T02:08:36;4.10;;;2.38;;
50976;SDS011;36992;48.200;12.418;2023-05-14T02:11:02;4.20;;;2.70;;
50976;SDS011;36992;48.200;12.418;2023-05-14T02:13:30;5.03;;;2.17;;
50976;SDS011;36992;48.200;12.418;2023-05-14T02:15:57;4.00;;;2.45;;
50976;SDS011;36992;48.200;12.418;2023-05-14T02:18:23;4.72;;;2.42;;
50976;SDS011;36992;48.200;12.418;2023-05-14T02:20:50;4.57;;;2.65;;
50976;SDS011;36992;48.200;12.418;2023-05-14T02:23:17;3.28;;;1.77;;
50976;SDS011;36992;48.200;12.418;2023-05-14T02:25:43;3.25;;;1.95;;
50976;SDS011;36992;48.200;12.418;2023-05-14T02:28:10;3.40;;;2.28;;
50976;SDS011;36992;48.200;12.418;2023-05-14T02:30:38;4.35;;;2.70;;
50976;SDS011;36992;48.200;12.418;2023-05-14T02:33:04;3.90;;;2.78;;
50976;SDS011;36992;48.200;12.418;2023-05-14T02:35:31;4.70;;;1.85;;
50976;SDS011;36992;48.200;12.418;2023-05-14T02:37:57;3.50;;;2.03;;
50976;SDS011;36992;48.200;12.418;2023-05-14T02:40:24;3.75;;;2.35;;
50976;SDS011;36992;48.200;12.418;2023-05-14T02:42:51;4.07;;;2.70;;
50976;SDS011;36992;48.200;12.418;2023-05-14T02:45:17;3.30;;;1.90;;
50976;SDS011;36992;48.200;12.418;2023-05-14T02:47:46;4.75;;;2.45;;
50976;SDS011;36992;48.200;12.418;2023-05-14T02:50:13;4.43;;;2.80;;
50976;SDS011;36992;48.200;12.418;2023-05-14T02:52:40;4.03;;;2.20;;
50976;SDS011;36992;48.200;12.418;2023-05-14T02:55:06;4.03;;;2.47;;
50976;SDS011;36992;48.200;12.418;2023-05-14T02:57:34;4.43;;;2.33;;
50976;SDS011;36992;48.200;12.418;2023-05-14T03:00:00;3.95;;;2.72;;
50976;SDS011;36992;48.200;12.418;2023-05-14T03:02:27;4.38;;;2.55;;
50976;SDS011;36992;48.200;12.418;2023-05-14T03:04:55;4.90;;;2.40;;
50976;SDS011;36992;48.200;12.418;2023-05-14T03:07:21;3.92;;;2.33;;
50976;SDS011;36992;48.200;12.418;2023-05-14T03:09:48;3.33;;;2.00;;
50976;SDS011;36992;48.200;12.418;2023-05-14T03:12:14;3.17;;;1.83;;
50976;SDS011;36992;48.200;12.418;2023-05-14T03:14:42;2.45;;;1.55;;
50976;SDS011;36992;48.200;12.418;2023-05-14T03:17:09;2.83;;;1.95;;
50976;SDS011;36992;48.200;12.418;2023-05-14T03:19:36;6.00;;;2.80;;
50976;SDS011;36992;48.200;12.418;2023-05-14T03:22:04;6.10;;;2.13;;
50976;SDS011;36992;48.200;12.418;2023-05-14T03:24:30;3.90;;;2.40;;
50976;SDS011;36992;48.200;12.418;2023-05-14T03:26:57;4.15;;;2.10;;
50976;SDS011;36992;48.200;12.418;2023-05-14T03:29:24;3.88;;;2.08;;
50976;SDS011;36992;48.200;12.418;2023-05-14T03:31:50;8.38;;;2.97;;
50976;SDS011;36992;48.200;12.418;2023-05-14T03:34:18;5.80;;;2.38;;
50976;SDS011;36992;48.200;12.418;2023-05-14T03:36:45;3.60;;;2.72;;
50976;SDS011;36992;48.200;12.418;2023-05-14T03:39:13;3.72;;;2.47;;
50976;SDS011;36992;48.200;12.418;2023-05-14T03:41:43;4.93;;;2.17;;
50976;SDS011;36992;48.200;12.418;2023-05-14T03:44:10;4.55;;;2.38;;
50976;SDS011;36992;48.200;12.418;2023-05-14T03:46:37;3.33;;;1.83;;
50976;SDS011;36992;48.200;12.418;2023-05-14T03:49:03;3.80;;;2.15;;
50976;SDS011;36992;48.200;12.418;2023-05-14T03:51:30;3.90;;;2.28;;
50976;SDS011;36992;48.200;12.418;2023-05-14T03:53:57;6.13;;;2.42;;
50976;SDS011;36992;48.200;12.418;2023-05-14T03:56:25;4.03;;;2.00;;
50976;SDS011;36992;48.200;12.418;2023-05-14T03:58:51;3.40;;;2.30;;
50976;SDS011;36992;48.200;12.418;2023-05-14T04:01:18;4.20;;;1.98;;
50976;SDS011;36992;48.200;12.418;2023-05-14T04:03:45;4.10;;;2.53;;
50976;SDS011;36992;48.200;12.418;2023-05-14T04:06:11;3.25;;;1.70;;
50976;SDS011;36992;48.200;12.418;2023-05-14T04:08:38;5.20;;;3.15;;
50976;SDS011;36992;48.200;12.418;2023-05-14T04:11:04;3.95;;;2.20;;
50976;SDS011;36992;48.200;12.418;2023-05-14T04:13:32;3.05;;;1.70;;
50976;SDS011;36992;48.200;12.418;2023-05-14T04:15:59;4.70;;;2.70;;
50976;SDS011;36992;48.200;12.418;2023-05-14T04:18:26;3.42;;;2.30;;
50976;SDS011;36992;48.200;12.418;2023-05-14T04:20:52;4.15;;;2.40;;
50976;SDS011;36992;48.200;12.418;2023-05-14T04:23:19;4.18;;;2.60;;
50976;SDS011;36992;48.200;12.418;2023-05-14T04:25:45;4.68;;;2.88;;
50976;SDS011;36992;48.200;12.418;2023-05-14T04:28:12;3.53;;;1.83;;
50976;SDS011;36992;48.200;12.418;2023-05-14T04:30:40;4.72;;;2.55;;
50976;SDS011;36992;48.200;12.418;2023-05-14T04:33:07;3.47;;;1.95;;
50976;SDS011;36992;48.200;12.418;2023-05-14T04:35:34;4.38;;;2.90;;
50976;SDS011;36992;48.200;12.418;2023-05-14T04:38:00;3.85;;;2.28;;
50976;SDS011;36992;48.200;12.418;2023-05-14T04:40:27;3.83;;;2.35;;
50976;SDS011;36992;48.200;12.418;2023-05-14T04:42:55;4.53;;;2.55;;
50976;SDS011;36992;48.200;12.418;2023-05-14T04:45:21;4.00;;;2.58;;
50976;SDS011;36992;48.200;12.418;2023-05-14T04:47:49;7.50;;;3.22;;
50976;SDS011;36992;48.200;12.418;2023-05-14T04:50:16;4.07;;;2.20;;
50976;SDS011;36992;48.200;12.418;2023-05-14T04:52:43;4.30;;;2.30;;
50976;SDS011;36992;48.200;12.418;2023-05-14T04:55:09;4.00;;;1.88;;
50976;SDS011;36992;48.200;12.418;2023-05-14T04:57:36;3.35;;;2.10;;
50976;SDS011;36992;48.200;12.418;2023-05-14T05:00:03;6.15;;;2.67;;
50976;SDS011;36992;48.200;12.418;2023-05-14T05:02:34;3.70;;;2.30;;
50976;SDS011;36992;48.200;12.418;2023-05-14T05:05:02;3.92;;;2.47;;
50976;SDS011;36992;48.200;12.418;2023-05-14T05:07:29;3.35;;;2.13;;
50976;SDS011;36992;48.200;12.418;2023-05-14T05:09:56;4.25;;;2.70;;
50976;SDS011;36992;48.200;12.418;2023-05-14T05:12:22;4.47;;;2.88;;
50976;SDS011;36992;48.200;12.418;2023-05-14T05:14:49;5.78;;;4.25;;
50976;SDS011;36992;48.200;12.418;2023-05-14T05:17:15;5.40;;;3.30;;
50976;SDS011;36992;48.200;12.418;2023-05-14T05:19:42;4.85;;;3.13;;
50976;SDS011;36992;48.200;12.418;2023-05-14T05:22:10;5.43;;;3.22;;
50976;SDS011;36992;48.200;12.418;2023-05-14T05:24:37;6.95;;;3.95;;
50976;SDS011;36992;48.200;12.418;2023-05-14T05:27:03;6.45;;;3.75;;
50976;SDS011;36992;48.200;12.418;2023-05-14T05:29:30;5.00;;;3.00;;
50976;SDS011;36992;48.200;12.418;2023-05-14T05:31:57;6.63;;;3.65;;
50976;SDS011;36992;48.200;12.418;2023-05-14T05:34:24;6.03;;;3.20;;
50976;SDS011;36992;48.200;12.418;2023-05-14T05:36:51;6.75;;;3.92;;
50976;SDS011;36992;48.200;12.418;2023-05-14T05:39:19;6.32;;;3.92;;
50976;SDS011;36992;48.200;12.418;2023-05-14T05:41:45;7.53;;;4.93;;
50976;SDS011;36992;48.200;12.418;2023-05-14T05:44:12;9.07;;;5.05;;
50976;SDS011;36992;48.200;12.418;2023-05-14T05:46:38;7.05;;;4.60;;
50976;SDS011;36992;48.200;12.418;2023-05-14T05:49:05;6.85;;;4.28;;
50976;SDS011;36992;48.200;12.418;2023-05-14T05:51:32;6.72;;;3.95;;
50976;SDS011;36992;48.200;12.418;2023-05-14T05:53:58;5.43;;;3.50;;
50976;SDS011;36992;48.200;12.418;2023-05-14T05:56:26;6.07;;;3.90;;
50976;SDS011;36992;48.200;12.418;2023-05-14T05:58:53;7.72;;;4.78;;
50976;SDS011;36992;48.200;12.418;2023-05-14T06:01:19;7.22;;;4.53;;
50976;SDS011;36992;48.200;12.418;2023-05-14T06:03:46;6.45;;;3.88;;
50976;SDS011;36992;48.200;12.418;2023-05-14T06:06:13;6.90;;;3.85;;
50976;SDS011;36992;48.200;12.418;2023-05-14T06:08:39;5.88;;;3.80;;
50976;SDS011;36992;48.200;12.418;2023-05-14T06:11:06;8.27;;;4.30;;
50976;SDS011;36992;48.200;12.418;2023-05-14T06:13:34;7.28;;;4.03;;
50976;SDS011;36992;48.200;12.418;2023-05-14T06:16:01;6.78;;;4.22;;
50976;SDS011;36992;48.200;12.418;2023-05-14T06:18:27;7.10;;;4.60;;
50976;SDS011;36992;48.200;12.418;2023-05-14T06:20:54;8.57;;;4.95;;
50976;SDS011;36992;48.200;12.418;2023-05-14T06:23:21;7.47;;;4.78;;
50976;SDS011;36992;48.200;12.418;2023-05-14T06:25:48;7.78;;;3.72;;
50976;SDS011;36992;48.200;12.418;2023-05-14T06:28:15;8.60;;;5.43;;
50976;SDS011;36992;48.200;12.418;2023-05-14T06:30:43;7.82;;;4.53;;
50976;SDS011;36992;48.200;12.418;2023-05-14T06:33:09;7.65;;;5.57;;
50976;SDS011;36992;48.200;12.418;2023-05-14T06:35:37;13.50;;;6.03;;
50976;SDS011;36992;48.200;12.418;2023-05-14T06:38:04;9.85;;;6.40;;
50976;SDS011;36992;48.200;12.418;2023-05-14T06:40:30;8.77;;;6.03;;
50976;SDS011;36992;48.200;12.418;2023-05-14T06:42:57;7.55;;;5.35;;
50976;SDS011;36992;48.200;12.418;2023-05-14T06:45:24;10.05;;;6.47;;
50976;SDS011;36992;48.200;12.418;2023-05-14T06:47:52;8.00;;;5.32;;
50976;SDS011;36992;48.200;12.418;2023-05-14T06:50:18;10.43;;;6.25;;
50976;SDS011;36992;48.200;12.418;2023-05-14T06:52:45;9.07;;;5.63;;
50976;SDS011;36992;48.200;12.418;2023-05-14T06:55:12;8.13;;;5.93;;
50976;SDS011;36992;48.200;12.418;2023-05-14T06:57:38;8.23;;;5.63;;
50976;SDS011;36992;48.200;12.418;2023-05-14T07:00:05;6.72;;;4.47;;
50976;SDS011;36992;48.200;12.418;2023-05-14T07:02:33;8.63;;;6.30;;
50976;SDS011;36992;48.200;12.418;2023-05-14T07:05:01;10.65;;;7.10;;
50976;SDS011;36992;48.200;12.418;2023-05-14T07:07:27;8.88;;;5.97;;
50976;SDS011;36992;48.200;12.418;2023-05-14T07:09:54;8.30;;;5.53;;
50976;SDS011;36992;48.200;12.418;2023-05-14T07:12:21;7.93;;;4.80;;
50976;SDS011;36992;48.200;12.418;2023-05-14T07:14:47;9.55;;;5.35;;
50976;SDS011;36992;48.200;12.418;2023-05-14T07:17:14;8.23;;;5.47;;
50976;SDS011;36992;48.200;12.418;2023-05-14T07:19:41;6.20;;;4.72;;
50976;SDS011;36992;48.200;12.418;2023-05-14T07:22:09;7.40;;;5.60;;
50976;SDS011;36992;48.200;12.418;2023-05-14T07:24:35;6.43;;;4.32;;
50976;SDS011;36992;48.200;12.418;2023-05-14T07:27:02;6.32;;;4.20;;
50976;SDS011;36992;48.200;12.418;2023-05-14T07:29:29;8.32;;;4.97;;
50976;SDS011;36992;48.200;12.418;2023-05-14T07:31:58;8.07;;;4.50;;
50976;SDS011;36992;48.200;12.418;2023-05-14T07:34:25;6.30;;;4.53;;
50976;SDS011;36992;48.200;12.418;2023-05-14T07:36:52;7.38;;;4.55;;
50976;SDS011;36992;48.200;12.418;2023-05-14T07:39:20;7.28;;;5.10;;
50976;SDS011;36992;48.200;12.418;2023-05-14T07:41:46;7.25;;;4.97;;
50976;SDS011;36992;48.200;12.418;2023-05-14T07:44:14;7.47;;;5.10;;
50976;SDS011;36992;48.200;12.418;2023-05-14T07:46:40;8.77;;;5.43;;
50976;SDS011;36992;48.200;12.418;2023-05-14T07:49:07;9.02;;;6.38;;
50976;SDS011;36992;48.200;12.418;2023-05-14T07:51:34;6.80;;;4.82;;
50976;SDS011;36992;48.200;12.418;2023-05-14T07:54:00;8.50;;;5.43;;
50976;SDS011;36992;48.200;12.418;2023-05-14T07:56:28;9.00;;;5.88;;
50976;SDS011;36992;48.200;12.418;2023-05-14T07:58:55;12.07;;;5.75;;
50976;SDS011;36992;48.200;12.418;2023-05-14T08:01:21;4.78;;;3.38;;
50976;SDS011;36992;48.200;12.418;2023-05-14T08:03:48;10.57;;;5.97;;
50976;SDS011;36992;48.200;12.418;2023-05-14T08:06:15;8.07;;;5.05;;
50976;SDS011;36992;48.200;12.418;2023-05-14T08:08:41;12.80;;;6.68;;
50976;SDS011;36992;48.200;12.418;2023-05-14T08:11:08;6.80;;;4.75;;
50976;SDS011;36992;48.200;12.418;2023-05-14T08:13:36;7.03;;;5.03;;
50976;SDS011;36992;48.200;12.418;2023-05-14T08:16:03;9.13;;;5.47;;
50976;SDS011;36992;48.200;12.418;2023-05-14T08:18:30;6.47;;;4.78;;
50976;SDS011;36992;48.200;12.418;2023-05-14T08:20:56;6.45;;;4.82;;
50976;SDS011;36992;48.200;12.418;2023-05-14T08:23:23;6.93;;;4.80;;
50976;SDS011;36992;48.200;12.418;2023-05-14T08:25:50;5.80;;;4.47;;
50976;SDS011;36992;48.200;12.418;2023-05-14T08:28:17;7.35;;;5.20;;
50976;SDS011;36992;48.200;12.418;2023-05-14T08:30:44;5.82;;;4.10;;
50976;SDS011;36992;48.200;12.418;2023-05-14T08:33:11;6.28;;;4.47;;
50976;SDS011;36992;48.200;12.418;2023-05-14T08:35:38;7.10;;;5.18;;
50976;SDS011;36992;48.200;12.418;2023-05-14T08:38:05;8.05;;;5.82;;
50976;SDS011;36992;48.200;12.418;2023-05-14T08:40:31;5.53;;;4.45;;
50976;SDS011;36992;48.200;12.418;2023-05-14T08:42:58;6.50;;;4.57;;
50976;SDS011;36992;48.200;12.418;2023-05-14T08:45:27;5.97;;;4.47;;
50976;SDS011;36992;48.200;12.418;2023-05-14T08:47:59;6.18;;;4.45;;
50976;SDS011;36992;48.200;12.418;2023-05-14T08:50:26;7.18;;;4.30;;
50976;SDS011;36992;48.200;12.418;2023-05-14T08:52:53;5.28;;;3.67;;
50976;SDS011;36992;48.200;12.418;2023-05-14T08:55:20;5.28;;;4.22;;
50976;SDS011;36992;48.200;12.418;2023-05-14T08:57:47;4.82;;;3.88;;
50976;SDS011;36992;48.200;12.418;2023-05-14T09:00:14;3.88;;;2.92;;
50976;SDS011;36992;48.200;12.418;2023-05-14T09:02:41;4.38;;;3.17;;
50976;SDS011;36992;48.200;12.418;2023-05-14T09:05:11;4.05;;;2.92;;
50976;SDS011;36992;48.200;12.418;2023-05-14T09:07:37;5.50;;;3.90;;
50976;SDS011;36992;48.200;12.418;2023-05-14T09:10:05;6.18;;;4.00;;
50976;SDS011;36992;48.200;12.418;2023-05-14T09:12:33;4.88;;;2.92;;
50976;SDS011;36992;48.200;12.418;2023-05-14T09:14:59;4.20;;;2.78;;
50976;SDS011;36992;48.200;12.418;2023-05-14T09:17:26;6.25;;;3.92;;
50976;SDS011;36992;48.200;12.418;2023-05-14T09:19:53;4.63;;;3.17;;
50976;SDS011;36992;48.200;12.418;2023-05-14T09:22:21;5.05;;;3.58;;
50976;SDS011;36992;48.200;12.418;2023-05-14T09:25:00;4.63;;;3.13;;
50976;SDS011;36992;48.200;12.418;2023-05-14T09:27:29;5.05;;;3.35;;
50976;SDS011;36992;48.200;12.418;2023-05-14T09:30:02;4.15;;;2.78;;
50976;SDS011;36992;48.200;12.418;2023-05-14T09:32:33;6.00;;;3.20;;
50976;SDS011;36992;48.200;12.418;2023-05-14T09:35:07;4.30;;;3.28;;
50976;SDS011;36992;48.200;12.418;2023-05-14T09:37:36;6.40;;;3.88;;
50976;SDS011;36992;48.200;12.418;2023-05-14T09:40:06;5.28;;;3.85;;
50976;SDS011;36992;48.200;12.418;2023-05-14T09:42:34;5.03;;;3.47;;
50976;SDS011;36992;48.200;12.418;2023-05-14T09:45:00;4.85;;;3.00;;
50976;SDS011;36992;48.200;12.418;2023-05-14T09:47:28;4.13;;;2.92;;
50976;SDS011;36992;48.200;12.418;2023-05-14T09:49:55;6.22;;;3.17;;
50976;SDS011;36992;48.200;12.418;2023-05-14T09:52:22;4.22;;;2.90;;
50976;SDS011;36992;48.200;12.418;2023-05-14T09:54:50;4.15;;;2.53;;
50976;SDS011;36992;48.200;12.418;2023-05-14T09:57:17;3.88;;;2.70;;
50976;SDS011;36992;48.200;12.418;2023-05-14T09:59:44;4.50;;;2.90;;
50976;SDS011;36992;48.200;12.418;2023-05-14T10:02:15;3.88;;;2.88;;
50976;SDS011;36992;48.200;12.418;2023-05-14T10:04:47;4.30;;;2.90;;
50976;SDS011;36992;48.200;12.418;2023-05-14T10:07:15;4.55;;;3.05;;
50976;SDS011;36992;48.200;12.418;2023-05-14T10:09:44;4.63;;;3.10;;
50976;SDS011;36992;48.200;12.418;2023-05-14T10:12:13;4.07;;;2.65;;
50976;SDS011;36992;48.200;12.418;2023-05-14T10:14:46;4.35;;;2.70;;
50976;SDS011;36992;48.200;12.418;2023-05-14T10:17:17;3.80;;;2.58;;
50976;SDS011;36992;48.200;12.418;2023-05-14T10:19:47;4.68;;;2.85;;
50976;SDS011;36992;48.200;12.418;2023-05-14T10:22:18;4.80;;;3.40;;
50976;SDS011;36992;48.200;12.418;2023-05-14T10:24:48;4.68;;;3.17;;
50976;SDS011;36992;48.200;12.418;2023-05-14T10:27:18;4.63;;;2.60;;
50976;SDS011;36992;48.200;12.418;2023-05-14T10:29:49;4.75;;;3.00;;
50976;SDS011;36992;48.200;12.418;2023-05-14T10:32:19;3.17;;;2.03;;
50976;SDS011;36992;48.200;12.418;2023-05-14T10:34:49;3.42;;;2.28;;
50976;SDS011;36992;48.200;12.418;2023-05-14T10:37:19;2.67;;;1.88;;
50976;SDS011;36992;48.200;12.418;2023-05-14T10:39:48;3.00;;;1.92;;
50976;SDS011;36992;48.200;12.418;2023-05-14T10:42:18;2.95;;;2.08;;
50976;SDS011;36992;48.200;12.418;2023-05-14T10:44:47;3.30;;;2.05;;
50976;SDS011;36992;48.200;12.418;2023-05-14T10:47:16;7.22;;;3.75;;
50976;SDS011;36992;48.200;12.418;2023-05-14T10:49:43;3.30;;;1.77;;
50976;SDS011;36992;48.200;12.418;2023-05-14T10:52:14;3.35;;;2.25;;
50976;SDS011;36992;48.200;12.418;2023-05-14T10:54:50;3.22;;;2.47;;
50976;SDS011;36992;48.200;12.418;2023-05-14T10:57:20;2.90;;;2.08;;
50976;SDS011;36992;48.200;12.418;2023-05-14T10:59:48;2.42;;;1.55;;
50976;SDS011;36992;48.200;12.418;2023-05-14T11:02:19;2.72;;;1.80;;
50976;SDS011;36992;48.200;12.418;2023-05-14T11:05:00;2.83;;;1.58;;
50976;SDS011;36992;48.200;12.418;2023-05-14T11:07:29;3.35;;;2.15;;
50976;SDS011;36992;48.200;12.418;2023-05-14T11:09:58;2.70;;;1.58;;
50976;SDS011;36992;48.200;12.418;2023-05-14T11:12:28;3.17;;;1.90;;
50976;SDS011;36992;48.200;12.418;2023-05-14T11:14:55;2.65;;;1.67;;
50976;SDS011;36992;48.200;12.418;2023-05-14T11:17:23;3.08;;;1.80;;
50976;SDS011;36992;48.200;12.418;2023-05-14T11:19:51;2.58;;;1.73;;
50976;SDS011;36992;48.200;12.418;2023-05-14T11:22:17;3.00;;;1.77;;
50976;SDS011;36992;48.200;12.418;2023-05-14T11:24:44;2.95;;;1.52;;
50976;SDS011;36992;48.200;12.418;2023-05-14T11:27:11;2.35;;;1.27;;
50976;SDS011;36992;48.200;12.418;2023-05-14T11:29:41;2.40;;;1.35;;
50976;SDS011;36992;48.200;12.418;2023-05-14T11:32:09;2.60;;;1.38;;
50976;SDS011;36992;48.200;12.418;2023-05-14T11:34:36;2.83;;;1.73;;
50976;SDS011;36992;48.200;12.418;2023-05-14T11:37:03;2.58;;;1.27;;
50976;SDS011;36992;48.200;12.418;2023-05-14T11:39:30;2.40;;;1.30;;
50976;SDS011;36992;48.200;12.418;2023-05-14T11:41:58;2.55;;;1.58;;
50976;SDS011;36992;48.200;12.418;2023-05-14T11:44:28;4.85;;;1.35;;
50976;SDS011;36992;48.200;12.418;2023-05-14T11:46:56;1.63;;;0.90;;
50976;SDS011;36992;48.200;12.418;2023-05-14T11:49:25;3.72;;;1.50;;
50976;SDS011;36992;48.200;12.418;2023-05-14T11:51:55;2.20;;;1.50;;
50976;SDS011;36992;48.200;12.418;2023-05-14T11:54:24;2.67;;;1.30;;
50976;SDS011;36992;48.200;12.418;2023-05-14T11:56:51;1.92;;;0.93;;
50976;SDS011;36992;48.200;12.418;2023-05-14T11:59:17;2.22;;;1.35;;
50976;SDS011;36992;48.200;12.418;2023-05-14T12:01:44;1.80;;;1.00;;
50976;SDS011;36992;48.200;12.418;2023-05-14T12:04:12;2.05;;;1.15;;
50976;SDS011;36992;48.200;12.418;2023-05-14T12:06:39;2.42;;;1.15;;
50976;SDS011;36992;48.200;12.418;2023-05-14T12:09:05;2.30;;;1.38;;
50976;SDS011;36992;48.200;12.418;2023-05-14T12:11:34;2.05;;;1.00;;
50976;SDS011;36992;48.200;12.418;2023-05-14T12:14:08;1.40;;;0.73;;
50976;SDS011;36992;48.200;12.418;2023-05-14T12:16:35;2.05;;;0.88;;
50976;SDS011;36992;48.200;12.418;2023-05-14T12:19:06;1.95;;;0.90;;
50976;SDS011;36992;48.200;12.418;2023-05-14T12:21:35;2.20;;;1.15;;
50976;SDS011;36992;48.200;12.418;2023-05-14T12:24:01;3.22;;;0.90;;
50976;SDS011;36992;48.200;12.418;2023-05-14T12:26:31;3.50;;;1.10;;
50976;SDS011;36992;48.200;12.418;2023-05-14T12:28:58;2.40;;;1.58;;
50976;SDS011;36992;48.200;12.418;2023-05-14T12:31:28;2.35;;;1.45;;
50976;SDS011;36992;48.200;12.418;2023-05-14T12:33:55;2.10;;;0.98;;
50976;SDS011;36992;48.200;12.418;2023-05-14T12:36:22;1.73;;;1.00;;
50976;SDS011;36992;48.200;12.418;2023-05-14T12:38:52;2.00;;;1.08;;
50976;SDS011;36992;48.200;12.418;2023-05-14T12:41:23;2.40;;;1.10;;
50976;SDS011;36992;48.200;12.418;2023-05-14T12:43:50;2.22;;;1.20;;
50976;SDS011;36992;48.200;12.418;2023-05-14T12:46:16;2.15;;;0.90;;
50976;SDS011;36992;48.200;12.418;2023-05-14T12:48:43;2.22;;;1.33;;
50976;SDS011;36992;48.200;12.418;2023-05-14T12:51:10;1.52;;;0.80;;
50976;SDS011;36992;48.200;12.418;2023-05-14T12:53:37;3.13;;;1.75;;
50976;SDS011;36992;48.200;12.418;2023-05-14T12:56:05;2.15;;;1.02;;
50976;SDS011;36992;48.200;12.418;2023-05-14T12:58:32;2.35;;;0.98;;
50976;SDS011;36992;48.200;12.418;2023-05-14T13:00:59;1.65;;;0.98;;
50976;SDS011;36992;48.200;12.418;2023-05-14T13:03:25;2.65;;;0.73;;
50976;SDS011;36992;48.200;12.418;2023-05-14T13:05:52;2.75;;;0.98;;
50976;SDS011;36992;48.200;12.418;2023-05-14T13:08:20;1.80;;;0.82;;
50976;SDS011;36992;48.200;12.418;2023-05-14T13:10:48;1.50;;;0.95;;
50976;SDS011;36992;48.200;12.418;2023-05-14T13:13:16;1.92;;;0.98;;
50976;SDS011;36992;48.200;12.418;2023-05-14T13:15:43;0.95;;;0.52;;
50976;SDS011;36992;48.200;12.418;2023-05-14T13:18:10;1.30;;;0.63;;
50976;SDS011;36992;48.200;12.418;2023-05-14T13:20:37;2.92;;;1.20;;
50976;SDS011;36992;48.200;12.418;2023-05-14T13:23:03;2.10;;;1.02;;
50976;SDS011;36992;48.200;12.418;2023-05-14T13:25:30;1.80;;;1.00;;
50976;SDS011;36992;48.200;12.418;2023-05-14T13:27:57;2.25;;;1.17;;
50976;SDS011;36992;48.200;12.418;2023-05-14T13:30:25;1.45;;;0.70;;
50976;SDS011;36992;48.200;12.418;2023-05-14T13:32:51;1.90;;;0.70;;
50976;SDS011;36992;48.200;12.418;2023-05-14T13:35:18;1.58;;;0.70;;
50976;SDS011;36992;48.200;12.418;2023-05-14T13:37:45;1.35;;;0.80;;
50976;SDS011;36992;48.200;12.418;2023-05-14T13:40:12;2.35;;;0.45;;
50976;SDS011;36992;48.200;12.418;2023-05-14T13:42:38;2.10;;;0.85;;
50976;SDS011;36992;48.200;12.418;2023-05-14T13:45:05;1.55;;;0.93;;
50976;SDS011;36992;48.200;12.418;2023-05-14T13:47:34;2.13;;;1.02;;
50976;SDS011;36992;48.200;12.418;2023-05-14T13:50:01;2.00;;;0.90;;
50976;SDS011;36992;48.200;12.418;2023-05-14T13:52:27;1.23;;;0.70;;
50976;SDS011;36992;48.200;12.418;2023-05-14T13:54:54;2.17;;;0.90;;
50976;SDS011;36992;48.200;12.418;2023-05-14T13:57:21;1.42;;;0.65;;
50976;SDS011;36992;48.200;12.418;2023-05-14T13:59:48;2.03;;;0.95;;
50976;SDS011;36992;48.200;12.418;2023-05-14T14:02:14;1.52;;;0.80;;
50976;SDS011;36992;48.200;12.418;2023-05-14T14:04:43;1.27;;;0.70;;
50976;SDS011;36992;48.200;12.418;2023-05-14T14:07:09;1.80;;;1.00;;
50976;SDS011;36992;48.200;12.418;2023-05-14T14:09:36;1.52;;;0.80;;
50976;SDS011;36992;48.200;12.418;2023-05-14T14:12:02;1.80;;;0.85;;
50976;SDS011;36992;48.200;12.418;2023-05-14T14:14:29;1.77;;;0.82;;
50976;SDS011;36992;48.200;12.418;2023-05-14T14:16:56;4.13;;;0.85;;
50976;SDS011;36992;48.200;12.418;2023-05-14T14:19:23;1.52;;;0.70;;
50976;SDS011;36992;48.200;12.418;2023-05-14T14:21:50;2.28;;;0.75;;
50976;SDS011;36992;48.200;12.418;2023-05-14T14:24:17;1.10;;;0.68;;
50976;SDS011;36992;48.200;12.418;2023-05-14T14:26:44;1.58;;;0.50;;
50976;SDS011;36992;48.200;12.418;2023-05-14T14:29:10;2.60;;;0.65;;
50976;SDS011;36992;48.200;12.418;2023-05-14T14:31:37;2.60;;;0.68;;
50976;SDS011;36992;48.200;12.418;2023-05-14T14:34:03;4.22;;;0.80;;